createdAt,value
2018-11-12T00:02:27.302Z,8.45
2018-11-12T00:05:05.114Z,9.50
2018-11-12T00:07:35.991Z,8.85
2018-11-12T00:10:12.721Z,12.95
2018-11-12T00:13:00.751Z,10.10
2018-11-12T00:15:31.859Z,11.38
2018-11-12T00:18:08.038Z,6.62
2018-11-12T00:20:40.538Z,10.00
2018-11-12T00:23:18.482Z,11.65
2018-11-12T00:25:58.562Z,12.20
2018-11-12T00:28:34.514Z,13.80
2018-11-12T00:31:05.633Z,11.70
2018-11-12T00:33:45.045Z,10.88
2018-11-12T00:38:53.472Z,10.40
2018-11-12T00:41:31.832Z,15.20
2018-11-12T00:46:42.850Z,13.43
2018-11-12T00:49:14.788Z,12.20
2018-11-12T00:51:49.095Z,13.50
2018-11-12T00:54:29.434Z,11.15
2018-11-12T03:26:12.051Z,20.00
2018-11-12T03:28:43.672Z,19.15
2018-11-12T03:31:14.869Z,20.70
2018-11-12T03:33:47.300Z,18.57
2018-11-12T03:36:21.626Z,16.27
2018-11-12T03:38:52.775Z,19.32
2018-11-12T03:41:27.217Z,20.50
2018-11-12T03:43:58.190Z,18.92
2018-11-12T03:46:30.386Z,17.45
2018-11-12T03:49:01.319Z,23.57
2018-11-12T03:51:34.909Z,21.20
2018-11-12T03:54:06.452Z,14.58
2018-11-12T03:56:37.398Z,14.90
2018-11-12T03:59:08.071Z,15.05
2018-11-12T04:01:48.059Z,19.90
2018-11-12T04:04:19.085Z,12.58
2018-11-12T04:06:49.686Z,20.40
2018-11-12T04:09:22.523Z,19.50
2018-11-12T04:11:53.504Z,18.02
2018-11-12T04:14:24.626Z,21.00
2018-11-12T04:16:55.205Z,20.77
2018-11-12T04:19:28.259Z,19.07
2018-11-12T04:21:59.252Z,18.02
2018-11-12T04:24:30.908Z,18.40
2018-11-12T04:27:02.032Z,19.00
2018-11-12T04:29:36.332Z,19.17
2018-11-12T04:32:07.345Z,20.15
2018-11-12T04:34:38.310Z,18.87
2018-11-12T04:37:10.071Z,17.35
2018-11-12T04:39:42.030Z,20.92
2018-11-12T04:42:13.390Z,20.55
2018-11-12T04:44:44.907Z,21.65
2018-11-12T04:47:16.283Z,20.62
2018-11-12T04:49:48.638Z,21.93
2018-11-12T04:52:21.326Z,21.75
2018-11-12T04:54:52.819Z,21.50
2018-11-12T04:57:25.348Z,20.82
2018-11-12T04:59:57.005Z,20.92
2018-11-12T05:02:30.254Z,15.10
2018-11-12T05:05:03.006Z,21.17
2018-11-12T05:07:34.611Z,21.23
2018-11-12T05:10:09.452Z,21.27
2018-11-12T05:12:42.538Z,22.82
2018-11-12T05:15:23.297Z,20.82
2018-11-12T05:18:08.188Z,21.20
2018-11-12T05:20:38.806Z,17.77
2018-11-12T05:23:10.036Z,21.23
2018-11-12T05:25:46.787Z,19.40
2018-11-12T05:28:22.528Z,22.90
2018-11-12T05:30:55.628Z,22.50
2018-11-12T05:33:29.414Z,21.55
2018-11-12T05:36:00.856Z,21.73
2018-11-12T05:38:32.724Z,19.62
2018-11-12T05:41:04.814Z,21.62
2018-11-12T05:43:36.915Z,19.35
2018-11-12T05:46:08.072Z,20.77
2018-11-12T05:48:39.692Z,22.02
2018-11-12T05:51:10.905Z,22.62
2018-11-12T05:53:43.373Z,19.73
2018-11-12T05:59:02.343Z,21.17
2018-11-12T06:01:35.965Z,18.92
2018-11-12T06:04:18.013Z,20.62
2018-11-12T06:09:29.475Z,20.30
2018-11-12T06:12:01.327Z,20.00
2018-11-12T06:14:34.624Z,20.20
2018-11-12T06:23:20.121Z,19.73
2018-11-12T06:25:59.435Z,22.25
2018-11-12T06:28:36.931Z,23.98
2018-11-12T06:31:09.936Z,22.82
2018-11-12T06:33:48.243Z,22.50
2018-11-12T06:36:30.834Z,22.77
2018-11-12T06:39:05.374Z,20.15
2018-11-12T06:41:37.193Z,20.92
2018-11-12T06:46:49.979Z,19.92
2018-11-12T06:52:10.969Z,17.55
2018-11-12T06:54:45.224Z,21.17
2018-11-12T06:57:17.165Z,19.05
2018-11-12T06:59:49.103Z,17.98
2018-11-12T07:02:20.839Z,18.92
2018-11-12T07:04:53.201Z,19.48
2018-11-12T07:07:28.230Z,21.17
2018-11-12T07:10:10.708Z,19.05
2018-11-12T07:12:52.312Z,18.98
2018-11-12T07:15:45.734Z,20.20
2018-11-12T07:21:16.464Z,16.82
2018-11-12T07:23:49.030Z,20.45
2018-11-12T07:26:27.757Z,18.92
2018-11-12T07:29:03.789Z,22.65
2018-11-12T07:31:35.574Z,19.20
2018-11-12T07:34:09.588Z,23.98
2018-11-12T07:42:05.086Z,20.50
2018-11-12T07:44:37.737Z,22.55
2018-11-12T07:47:11.423Z,24.57
2018-11-12T07:49:48.672Z,23.10
2018-11-12T07:52:30.066Z,26.20
2018-11-12T07:55:03.774Z,24.40
2018-11-12T07:57:40.294Z,25.80
2018-11-12T08:00:35.034Z,24.47
2018-11-12T08:03:12.782Z,26.20
2018-11-12T08:11:27.893Z,22.82
2018-11-12T08:14:06.383Z,21.75
2018-11-12T08:16:36.826Z,21.52
2018-11-12T08:19:06.686Z,20.40
2018-11-12T08:21:40.717Z,22.48
2018-11-12T08:24:15.528Z,19.32
2018-11-12T08:29:58.971Z,21.15
2018-11-12T08:32:39.495Z,19.77
2018-11-12T08:35:17.011Z,21.52
2018-11-12T08:37:50.219Z,21.40
2018-11-12T08:40:26.418Z,19.17
2018-11-12T08:45:44.270Z,21.27
2018-11-12T08:50:58.857Z,22.30
2018-11-12T08:53:35.080Z,19.73
2018-11-12T08:56:07.708Z,21.10
2018-11-12T08:58:38.576Z,21.02
2018-11-12T09:01:11.325Z,19.65
2018-11-12T09:03:46.967Z,20.02
2018-11-12T09:06:21.666Z,20.25
2018-11-12T09:11:47.856Z,17.95
2018-11-12T09:14:21.084Z,18.98
2018-11-12T09:16:58.723Z,21.25
2018-11-12T09:19:35.876Z,19.35
2018-11-12T09:22:25.776Z,17.90
2018-11-12T09:25:06.172Z,16.57
2018-11-12T09:27:41.131Z,17.37
2018-11-12T09:30:20.395Z,18.10
2018-11-12T09:32:51.882Z,19.23
2018-11-12T09:35:26.854Z,18.02
2018-11-12T09:38:06.079Z,16.25
2018-11-12T09:40:41.049Z,16.42
2018-11-12T09:43:16.221Z,15.20
2018-11-12T09:45:51.175Z,17.15
2018-11-12T09:48:30.904Z,16.85
2018-11-12T09:51:13.185Z,17.45
2018-11-12T09:53:45.784Z,15.45
2018-11-12T10:20:33.219Z,17.23
2018-11-12T10:23:05.314Z,13.10
2018-11-12T10:25:41.225Z,13.93
2018-11-12T10:28:21.268Z,14.75
2018-11-12T10:30:55.662Z,14.00
2018-11-12T10:33:28.014Z,13.28
2018-11-12T10:36:02.484Z,13.03
2018-11-12T10:38:35.379Z,13.80
2018-11-12T10:41:08.900Z,12.35
2018-11-12T10:43:40.368Z,14.28
2018-11-12T10:46:12.027Z,12.73
2018-11-12T10:48:43.711Z,12.43
2018-11-12T10:51:16.931Z,11.48
2018-11-12T10:53:57.767Z,12.75
2018-11-12T10:56:34.410Z,15.03
2018-11-12T11:02:57.857Z,12.35
2018-11-12T11:05:43.022Z,10.90
2018-11-12T11:13:49.133Z,16.42
2018-11-12T11:16:26.170Z,11.08
2018-11-12T11:19:24.307Z,12.35
2018-11-12T11:22:14.468Z,14.78
2018-11-12T11:51:56.342Z,11.57
2018-11-12T11:54:34.758Z,10.70
2018-11-12T11:57:27.888Z,10.23
2018-11-12T12:00:08.315Z,12.35
2018-11-12T12:02:43.590Z,12.78
2018-11-12T12:05:23.653Z,13.60
2018-11-12T12:07:59.346Z,11.90
2018-11-12T12:10:32.108Z,10.63
2018-11-12T12:13:05.981Z,10.78
2018-11-12T12:22:19.724Z,9.30
2018-11-12T12:25:29.074Z,12.43
2018-11-12T12:28:08.696Z,10.98
2018-11-12T12:30:51.174Z,10.98
2018-11-12T12:33:32.592Z,21.95
2018-11-12T12:36:13.877Z,15.35
2018-11-12T12:41:50.008Z,8.65
2018-11-12T12:54:06.925Z,7.83
2018-11-12T12:59:52.340Z,6.90
2018-11-12T13:02:36.793Z,8.15
2018-11-12T13:28:57.093Z,9.23
2018-11-12T13:58:24.598Z,11.38
2018-11-12T15:47:13.198Z,14.10
2018-11-12T15:58:07.088Z,15.63
2018-11-12T16:56:25.299Z,12.23
2018-11-12T17:40:03.134Z,13.65
2018-11-12T18:05:10.589Z,13.85
2018-11-12T18:23:56.823Z,22.90
2018-11-12T18:35:36.192Z,16.50
2018-11-12T18:38:29.361Z,16.35
2018-11-12T18:50:33.308Z,17.45
2018-11-12T18:53:21.418Z,17.90
2018-11-12T18:56:16.574Z,18.20
2018-11-12T18:59:22.697Z,16.67
2018-11-12T19:11:42.202Z,25.37
2018-11-12T19:14:39.112Z,22.70
2018-11-12T19:20:37.677Z,23.20
2018-11-12T19:23:36.858Z,24.20
2018-11-12T19:32:12.386Z,27.40
2018-11-12T19:35:08.987Z,29.70
2018-11-12T20:27:56.687Z,19.10
2018-11-12T20:40:18.553Z,13.03
2018-11-12T20:55:33.289Z,7.20
2018-11-12T20:58:30.920Z,14.93
2018-11-12T21:01:18.601Z,13.53
2018-11-12T21:06:57.602Z,16.52
2018-11-12T21:09:44.472Z,15.40
2018-11-12T21:12:35.907Z,18.90
2018-11-12T21:18:05.150Z,15.78
2018-11-12T21:20:57.052Z,17.55
2018-11-12T21:23:57.224Z,18.35
2018-11-12T21:26:34.811Z,11.53
2018-11-12T21:32:15.112Z,15.45
2018-11-12T21:35:05.362Z,16.42
2018-11-12T21:37:53.112Z,18.27
2018-11-12T21:40:38.080Z,21.52
2018-11-12T21:43:24.892Z,15.45
2018-11-12T21:46:10.709Z,24.43
2018-11-12T21:48:53.963Z,17.02
2018-11-12T21:51:29.645Z,23.22
2018-11-12T21:54:09.905Z,24.72
2018-11-12T21:56:44.353Z,24.75
2018-11-12T22:02:29.735Z,24.12
2018-11-12T22:05:27.551Z,26.17
2018-11-12T22:11:01.758Z,23.07
2018-11-12T22:13:44.180Z,19.52
2018-11-12T22:19:33.913Z,23.18
2018-11-12T22:28:04.333Z,29.23
2018-11-12T22:30:46.776Z,29.65
2018-11-12T22:33:30.988Z,36.50
2018-11-12T22:36:03.317Z,28.80
2018-11-12T22:38:47.957Z,27.10
2018-11-12T22:41:31.965Z,23.95
2018-11-12T22:44:15.913Z,24.12
2018-11-12T22:46:53.833Z,20.88
2018-11-12T22:49:36.431Z,21.62
2018-11-12T22:52:24.911Z,21.93
2018-11-12T22:55:05.794Z,21.95
2018-11-12T22:57:43.735Z,20.68
2018-11-12T23:00:29.971Z,19.95
2018-11-12T23:03:02.832Z,19.73
2018-11-12T23:05:36.674Z,18.02
2018-11-12T23:08:09.665Z,20.85
2018-11-12T23:10:45.323Z,18.27
2018-11-12T23:13:19.589Z,19.57
2018-11-12T23:15:57.018Z,19.02
2018-11-12T23:18:33.385Z,18.67
2018-11-12T23:21:06.244Z,18.90
2018-11-12T23:23:41.480Z,18.90
2018-11-12T23:26:15.158Z,17.27
2018-11-12T23:29:07.599Z,17.65
2018-11-12T23:31:45.950Z,17.45
2018-11-12T23:34:24.389Z,18.67
2018-11-12T23:37:06.029Z,19.25
2018-11-12T23:39:42.110Z,19.07
2018-11-12T23:42:19.069Z,18.10
2018-11-12T23:44:51.483Z,20.23
2018-11-12T23:49:28.425Z,18.15
2018-11-12T23:54:52.882Z,23.80
2018-11-12T23:57:26.472Z,17.67
2018-11-12T23:59:59.304Z,22.90
